Time;durP1;ratioP1;P1;durP2;ratioP2;P2;SDS_P1;SDS_P2;PMS_P1;PMS_P2;Temp;Humidity;BMP_temperature;BMP_pressure;BME280_temperature;BME280_humidity;BME280_pressure;Samples;Min_cycle;Max_cycle;Signal;HPM_P1;HPM_P2
2024/02/06 00:00:38;;;;;;;13.50;10.57;;;;;;;3.63;94.10;95893.91;4884353;29;20192;-77
2024/02/06 00:03:04;;;;;;;17.77;12.07;;;;;;;3.63;93.78;95888.78;4889929;29;20636;-78
2024/02/06 00:05:29;;;;;;;15.10;11.23;;;;;;;3.70;93.59;95886.63;4891330;29;20637;-77
2024/02/06 00:07:54;;;;;;;16.50;10.93;;;;;;;3.64;94.36;95887.88;4884026;29;20191;-79
2024/02/06 00:10:19;;;;;;;12.17;10.30;;;;;;;3.66;93.51;95895.47;4883281;29;20184;-77
2024/02/06 00:12:46;;;;;;;15.47;10.77;;;;;;;3.68;93.24;95893.63;4901846;29;20214;-77
2024/02/06 00:15:11;;;;;;;17.97;10.57;;;;;;;3.69;93.55;95896.09;4903143;29;20251;-77
2024/02/06 00:17:36;;;;;;;18.10;11.23;;;;;;;3.78;93.60;95899.81;4888550;29;20267;-79
2024/02/06 00:20:02;;;;;;;17.10;11.33;;;;;;;3.77;93.11;95899.91;4892356;29;20207;-77
2024/02/06 00:22:28;;;;;;;16.33;10.23;;;;;;;3.77;93.04;95887.91;4900544;29;20219;-78
2024/02/06 00:24:53;;;;;;;15.60;10.73;;;;;;;3.76;93.50;95895.69;4898841;29;20180;-78
2024/02/06 00:27:18;;;;;;;16.37;10.70;;;;;;;3.88;93.58;95889.78;4889708;29;20196;-78
2024/02/06 00:29:44;;;;;;;15.63;10.43;;;;;;;4.03;93.00;95893.94;4891490;29;20199;-78
2024/02/06 00:32:11;;;;;;;13.97;10.50;;;;;;;3.99;92.85;95897.63;4902587;29;20211;-78
2024/02/06 00:34:36;;;;;;;17.10;11.10;;;;;;;3.95;93.88;95903.88;4896398;29;20238;-78
2024/02/06 00:37:01;;;;;;;19.27;11.60;;;;;;;4.18;92.99;95899.84;4891519;29;20282;-78
2024/02/06 00:39:27;;;;;;;16.30;10.73;;;;;;;4.23;92.02;95910.63;4888861;29;20199;-78
2024/02/06 00:41:52;;;;;;;18.50;11.40;;;;;;;4.28;91.84;95902.63;4886674;29;20222;-76
2024/02/06 00:44:19;;;;;;;17.80;10.30;;;;;;;4.25;92.17;95903.66;4882900;29;20539;-77
2024/02/06 00:46:44;;;;;;;18.27;10.93;;;;;;;4.23;92.52;95908.88;4889522;29;20192;-78
2024/02/06 00:49:09;;;;;;;16.43;10.67;;;;;;;4.17;92.92;95898.19;4900955;29;20282;-77
2024/02/06 00:51:35;;;;;;;16.27;11.30;;;;;;;4.18;92.13;95892.13;4887788;29;20203;-78
2024/02/06 00:54:00;;;;;;;17.17;10.97;;;;;;;4.34;91.95;95891.94;4888228;29;20255;-77
2024/02/06 00:56:26;;;;;;;18.43;10.67;;;;;;;4.36;91.68;95895.22;4888766;29;20190;-79
2024/02/06 00:58:51;;;;;;;15.93;10.53;;;;;;;4.24;92.47;95891.69;4881176;29;20650;-77
2024/02/06 01:01:16;;;;;;;15.13;9.47;;;;;;;4.28;92.15;95888.03;4886198;29;20214;-78
2024/02/06 01:03:41;;;;;;;17.30;10.40;;;;;;;4.41;91.88;95885.44;4904666;29;20539;-78
2024/02/06 01:06:09;;;;;;;15.73;9.83;;;;;;;4.32;91.34;95897.16;4904191;29;20908;-77
2024/02/06 01:08:34;;;;;;;16.07;10.17;;;;;;;4.38;91.38;95894.19;4897984;29;20287;-77
2024/02/06 01:10:59;;;;;;;13.97;10.23;;;;;;;4.36;90.96;95887.50;4881583;29;20700;-78
2024/02/06 01:13:25;;;;;;;14.57;9.27;;;;;;;4.47;91.19;95888.44;4902776;29;20301;-77
2024/02/06 01:15:50;;;;;;;12.93;8.63;;;;;;;4.48;91.08;95884.94;4887009;29;20198;-77
2024/02/06 01:18:15;;;;;;;16.97;9.80;;;;;;;4.37;91.51;95877.13;4900348;29;20194;-78
2024/02/06 01:20:41;;;;;;;12.87;8.60;;;;;;;4.34;91.09;95884.22;4887599;29;20656;-78
2024/02/06 01:23:06;;;;;;;16.80;9.10;;;;;;;4.38;91.23;95875.38;4882918;29;20218;-77
2024/02/06 01:25:32;;;;;;;14.33;9.60;;;;;;;4.40;91.00;95882.06;4895202;29;20244;-77
2024/02/06 01:27:57;;;;;;;16.43;9.90;;;;;;;4.44;90.75;95886.09;4889062;29;20746;-78
2024/02/06 01:30:22;;;;;;;16.40;8.83;;;;;;;4.43;90.18;95879.28;4891126;29;20195;-78
2024/02/06 01:32:47;;;;;;;13.80;9.90;;;;;;;4.40;90.77;95886.38;4897574;29;20233;-78
2024/02/06 01:35:13;;;;;;;12.00;8.47;;;;;;;4.52;90.29;95885.56;4881810;29;20207;-78
2024/02/06 01:37:38;;;;;;;13.43;8.13;;;;;;;4.52;90.14;95886.41;4889000;29;20205;-78
2024/02/06 01:40:04;;;;;;;13.10;8.20;;;;;;;4.55;89.75;95886.19;4903124;29;20220;-77
2024/02/06 01:42:29;;;;;;;13.30;8.80;;;;;;;4.54;89.88;95888.88;4894288;29;20257;-78
2024/02/06 01:44:55;;;;;;;14.53;9.10;;;;;;;4.53;90.07;95884.66;4886441;29;20258;-78
2024/02/06 01:47:20;;;;;;;13.77;9.27;;;;;;;4.51;89.81;95889.06;4887604;29;20187;-78
2024/02/06 01:49:46;;;;;;;13.37;8.07;;;;;;;4.57;89.42;95893.78;4883806;29;20605;-79
2024/02/06 01:52:12;;;;;;;12.40;9.10;;;;;;;4.63;89.06;95893.41;4886404;29;20700;-78
2024/02/06 01:54:37;;;;;;;14.27;8.90;;;;;;;4.41;89.34;95898.31;4888085;29;20194;-78
2024/02/06 01:57:03;;;;;;;12.70;8.80;;;;;;;4.41;89.63;95893.16;4900699;29;20250;-77
2024/02/06 01:59:29;;;;;;;14.57;9.63;;;;;;;4.45;89.33;95903.16;4892972;29;20565;-78
2024/02/06 02:01:55;;;;;;;13.93;8.17;;;;;;;4.36;89.57;95900.38;4902298;29;20219;-78
2024/02/06 02:04:20;;;;;;;14.03;10.10;;;;;;;4.36;90.22;95898.63;4888973;29;20191;-78
2024/02/06 02:06:45;;;;;;;15.70;8.93;;;;;;;4.47;89.78;95903.03;4901224;29;20200;-79
2024/02/06 02:09:11;;;;;;;15.67;9.57;;;;;;;4.58;89.24;95899.75;4880339;29;20202;-77
2024/02/06 02:11:37;;;;;;;14.70;9.87;;;;;;;4.55;89.15;95891.31;4899271;29;20213;-77
2024/02/06 02:14:02;;;;;;;13.83;9.37;;;;;;;4.42;89.35;95898.22;4900592;29;20216;-79
2024/02/06 02:16:27;;;;;;;16.33;9.30;;;;;;;4.55;88.98;95891.31;4888546;29;20576;-78
2024/02/06 02:18:55;;;;;;;13.13;9.87;;;;;;;4.21;90.37;95897.88;4897661;29;20191;-77
2024/02/06 02:21:20;;;;;;;15.77;9.57;;;;;;;4.41;89.72;95906.00;4904007;29;20232;-78
2024/02/06 02:23:46;;;;;;;16.80;9.70;;;;;;;4.42;89.94;95903.38;4897905;29;20656;-78
2024/02/06 02:26:12;;;;;;;15.53;9.73;;;;;;;4.54;89.02;95904.28;4885815;29;20205;-78
2024/02/06 02:28:39;;;;;;;19.67;10.40;;;;;;;4.53;88.53;95900.09;4918168;29;20550;-77
2024/02/06 02:31:05;;;;;;;14.17;9.33;;;;;;;4.49;89.09;95901.19;4900828;29;20195;-79
2024/02/06 02:33:31;;;;;;;12.57;8.83;;;;;;;4.46;88.99;95891.13;4882931;29;20653;-78
2024/02/06 02:35:57;;;;;;;14.03;9.30;;;;;;;4.47;89.25;95898.72;4884106;29;20187;-78
2024/02/06 02:38:23;;;;;;;14.07;10.07;;;;;;;4.46;88.83;95903.97;4903722;29;20236;-78
2024/02/06 02:40:48;;;;;;;15.17;8.60;;;;;;;4.40;89.24;95896.66;4886611;29;20602;-78
2024/02/06 02:43:14;;;;;;;14.33;8.83;;;;;;;4.45;88.39;95887.72;4884322;29;20691;-77
2024/02/06 02:45:39;;;;;;;13.70;9.47;;;;;;;4.41;88.85;95896.56;4881725;29;20189;-78
2024/02/06 02:48:05;;;;;;;13.47;9.83;;;;;;;4.42;88.47;95894.84;4884300;29;20222;-77
2024/02/06 02:50:30;;;;;;;10.50;8.83;;;;;;;4.48;88.32;95878.97;4897930;29;20205;-78
2024/02/06 02:52:56;;;;;;;14.17;9.47;;;;;;;4.47;88.01;95877.34;4904013;29;20207;-78
2024/02/06 02:55:21;;;;;;;14.20;10.63;;;;;;;4.42;88.13;95875.09;4910087;29;20191;-78
2024/02/06 02:57:46;;;;;;;14.37;9.73;;;;;;;4.48;87.91;95882.38;4886713;29;20554;-77
2024/02/06 03:00:13;;;;;;;15.93;9.13;;;;;;;4.42;88.84;95879.41;4900361;29;20247;-77
2024/02/06 03:02:38;;;;;;;14.00;9.27;;;;;;;4.49;87.52;95878.03;4891610;29;21068;-78
2024/02/06 03:05:03;;;;;;;13.67;9.43;;;;;;;4.46;88.04;95880.84;4906826;29;20191;-76
2024/02/06 03:07:29;;;;;;;14.30;9.60;;;;;;;4.68;87.11;95887.91;4896466;29;20195;-77
2024/02/06 03:09:54;;;;;;;13.23;9.57;;;;;;;4.37;87.80;95879.69;4881491;29;20271;-78
2024/02/06 03:12:20;;;;;;;12.53;9.27;;;;;;;4.20;88.19;95883.38;4907356;29;20270;-78
2024/02/06 03:14:45;;;;;;;12.00;8.33;;;;;;;4.47;87.30;95879.91;4903914;29;20222;-78
2024/02/06 03:17:10;;;;;;;15.83;9.47;;;;;;;4.39;86.99;95879.59;4889097;29;20270;-77
2024/02/06 03:19:36;;;;;;;17.50;9.13;;;;;;;4.51;86.51;95881.38;4886779;29;20646;-78
2024/02/06 03:22:02;;;;;;;13.60;8.43;;;;;;;4.60;85.50;95883.31;4888016;29;20327;-77
2024/02/06 03:24:28;;;;;;;11.17;8.07;;;;;;;4.34;85.81;95871.38;4886912;29;20232;-77
2024/02/06 03:26:55;;;;;;;15.57;9.20;;;;;;;4.15;87.18;95879.44;4890124;29;20240;-77
2024/02/06 03:29:20;;;;;;;11.87;8.30;;;;;;;4.32;86.49;95884.31;4905927;29;20202;-76
2024/02/06 03:31:45;;;;;;;11.60;8.30;;;;;;;4.44;85.89;95880.94;4908217;29;20217;-77
2024/02/06 03:34:11;;;;;;;12.80;9.93;;;;;;;4.43;86.05;95881.03;4899001;29;20192;-78
2024/02/06 03:36:40;;;;;;;11.50;8.33;;;;;;;4.49;85.62;95885.75;4905186;29;20191;-77
2024/02/06 03:39:06;;;;;;;13.47;7.93;;;;;;;4.30;86.07;95885.34;4889544;29;20190;-78
2024/02/06 03:41:32;;;;;;;12.80;7.43;;;;;;;4.17;86.13;95886.16;4895797;29;20229;-78
2024/02/06 03:43:57;;;;;;;14.60;8.13;;;;;;;4.28;85.46;95887.19;4884321;29;20664;-78
2024/02/06 03:46:22;;;;;;;13.27;7.80;;;;;;;4.06;86.58;95886.00;4885865;29;21612;-77
2024/02/06 03:48:47;;;;;;;12.33;7.60;;;;;;;4.28;85.06;95885.44;4886002;29;20203;-78
2024/02/06 03:51:13;;;;;;;12.37;7.20;;;;;;;4.30;85.12;95890.47;4887546;29;20191;-77
2024/02/06 03:53:38;;;;;;;12.93;6.90;;;;;;;4.47;84.37;95893.59;4886985;29;20199;-78
2024/02/06 03:56:04;;;;;;;13.13;7.80;;;;;;;4.36;84.73;95900.38;4904725;29;20192;-76
2024/02/06 03:58:29;;;;;;;11.03;7.10;;;;;;;4.20;85.21;95885.13;4900525;29;20261;-78
2024/02/06 04:00:55;;;;;;;11.37;7.90;;;;;;;4.47;84.84;95892.75;4901250;29;20223;-78
2024/02/06 04:03:20;;;;;;;12.43;8.20;;;;;;;4.40;84.61;95892.34;4892202;29;20208;-78
2024/02/06 04:05:45;;;;;;;13.10;7.50;;;;;;;4.56;84.00;95897.28;4889381;29;20191;-78
2024/02/06 04:08:11;;;;;;;13.47;7.97;;;;;;;4.54;84.08;95894.81;4870521;29;20195;-78
2024/02/06 04:10:39;;;;;;;12.53;8.17;;;;;;;4.61;84.15;95900.41;4899198;29;20200;-79
2024/02/06 04:13:08;;;;;;;10.93;6.70;;;;;;;4.01;85.75;95908.63;4889179;29;20223;-80
2024/02/06 04:15:34;;;;;;;10.43;7.23;;;;;;;4.08;85.85;95909.06;4904193;29;20211;-79
2024/02/06 04:17:59;;;;;;;10.27;6.80;;;;;;;4.17;84.97;95911.03;4887433;29;20278;-79
2024/02/06 04:20:25;;;;;;;11.97;7.33;;;;;;;4.19;84.38;95899.72;4890227;29;20290;-79
2024/02/06 04:22:50;;;;;;;11.73;6.57;;;;;;;4.25;84.03;95903.66;4880294;29;20248;-79
2024/02/06 04:25:16;;;;;;;12.30;6.83;;;;;;;4.37;83.50;95917.44;4902204;29;20239;-78
2024/02/06 04:27:41;;;;;;;11.97;7.23;;;;;;;4.21;84.82;95912.47;4889564;29;20243;-78
2024/02/06 04:30:07;;;;;;;12.23;7.50;;;;;;;4.24;85.08;95912.25;4892134;29;20657;-79
2024/02/06 04:32:32;;;;;;;11.70;7.93;;;;;;;4.39;84.27;95915.59;4887566;29;20238;-79
2024/02/06 04:34:58;;;;;;;12.67;7.03;;;;;;;4.49;83.98;95891.72;4882349;29;20225;-79
2024/02/06 04:37:23;;;;;;;11.37;6.63;;;;;;;4.40;84.05;95881.22;4907881;29;20228;-75
2024/02/06 04:39:48;;;;;;;10.73;6.23;;;;;;;4.18;84.79;95886.97;4888744;29;20190;-79
2024/02/06 04:42:14;;;;;;;8.87;6.40;;;;;;;4.09;85.23;95867.84;4887678;29;20224;-78
2024/02/06 04:44:39;;;;;;;12.63;6.63;;;;;;;4.21;85.06;95872.16;4881925;29;20188;-79
2024/02/06 04:47:05;;;;;;;8.40;5.77;;;;;;;3.83;86.70;95854.13;4885420;29;20254;-80
2024/02/06 04:49:30;;;;;;;10.63;5.30;;;;;;;4.01;86.31;95862.38;4901787;29;20203;-78
2024/02/06 04:51:56;;;;;;;8.97;6.30;;;;;;;4.22;85.61;95840.38;4903982;29;20214;-78
2024/02/06 04:54:21;;;;;;;8.07;4.97;;;;;;;4.40;84.94;95837.53;4886116;29;20217;-80
2024/02/06 04:56:47;;;;;;;7.77;5.53;;;;;;;4.42;84.35;95840.84;4919805;29;20213;-79
2024/02/06 04:59:13;;;;;;;8.57;5.23;;;;;;;4.12;86.19;95826.50;4898537;29;20200;-79
2024/02/06 05:01:39;;;;;;;8.07;4.60;;;;;;;4.58;84.70;95838.84;4904448;29;20215;-79
2024/02/06 05:04:04;;;;;;;8.93;4.53;;;;;;;4.58;84.20;95828.56;4889839;29;20278;-79
2024/02/06 05:06:30;;;;;;;6.73;4.33;;;;;;;4.60;84.37;95831.88;4895857;29;20192;-78
2024/02/06 05:08:55;;;;;;;8.63;4.70;;;;;;;4.63;84.50;95830.84;4882626;29;20212;-78
2024/02/06 05:11:20;;;;;;;7.73;4.50;;;;;;;4.72;84.15;95819.91;4880220;29;20204;-79
2024/02/06 05:13:46;;;;;;;6.33;4.10;;;;;;;4.74;83.91;95811.16;4895192;29;20205;-78
2024/02/06 05:16:11;;;;;;;7.07;4.20;;;;;;;4.78;84.18;95810.03;4888127;29;20190;-79
2024/02/06 05:18:36;;;;;;;4.43;3.50;;;;;;;4.92;83.28;95806.47;4895440;29;20200;-79
2024/02/06 05:21:02;;;;;;;6.20;3.60;;;;;;;4.94;83.15;95807.19;4888141;29;20281;-78
2024/02/06 05:23:27;;;;;;;7.17;4.40;;;;;;;5.01;83.04;95817.88;4901122;29;20200;-78
2024/02/06 05:25:52;;;;;;;5.97;3.23;;;;;;;5.03;82.63;95814.28;4883264;29;20285;-78
2024/02/06 05:28:18;;;;;;;5.43;3.23;;;;;;;4.91;82.88;95820.28;4903645;29;20319;-79
2024/02/06 05:30:43;;;;;;;4.60;2.83;;;;;;;5.11;82.50;95827.44;4894212;29;20341;-76
2024/02/06 05:33:08;;;;;;;4.87;3.00;;;;;;;5.19;82.47;95828.66;4885132;29;20212;-78
2024/02/06 05:35:34;;;;;;;5.13;2.70;;;;;;;5.31;81.70;95838.94;4880350;29;20275;-78
2024/02/06 05:37:59;;;;;;;5.73;3.13;;;;;;;5.32;81.50;95834.59;4888331;29;20356;-78
2024/02/06 05:40:24;;;;;;;6.13;2.87;;;;;;;5.26;82.10;95829.88;4904025;29;20222;-78
2024/02/06 05:42:50;;;;;;;4.87;2.53;;;;;;;5.30;82.15;95831.28;4886255;29;20252;-79
2024/02/06 05:45:15;;;;;;;3.03;2.40;;;;;;;5.44;81.45;95826.00;4880309;29;20271;-79
2024/02/06 05:47:40;;;;;;;4.07;2.53;;;;;;;5.25;82.28;95826.47;4885339;29;20205;-78
2024/02/06 05:50:06;;;;;;;5.17;2.50;;;;;;;5.36;82.64;95836.00;4900537;29;20270;-79
2024/02/06 05:52:32;;;;;;;4.07;2.53;;;;;;;5.47;81.95;95825.75;4901954;29;20260;-80
2024/02/06 05:54:57;;;;;;;4.83;2.37;;;;;;;5.47;81.57;95817.22;4904881;29;20565;-78
2024/02/06 05:57:22;;;;;;;3.20;2.00;;;;;;;5.52;81.54;95818.53;4890086;29;20195;-78
2024/02/06 05:59:48;;;;;;;2.17;1.80;;;;;;;5.76;80.34;95831.41;4881533;29;20242;-79
2024/02/06 06:02:13;;;;;;;3.30;1.87;;;;;;;5.80;80.27;95822.50;4885052;29;20267;-79
2024/02/06 06:04:38;;;;;;;5.13;2.37;;;;;;;5.71;80.86;95825.75;4904842;29;20190;-78
2024/02/06 06:07:04;;;;;;;4.37;2.00;;;;;;;5.71;80.85;95828.34;4888493;29;20347;-76
2024/02/06 06:09:29;;;;;;;2.23;2.03;;;;;;;5.86;80.17;95816.09;4894975;29;20288;-75
2024/02/06 06:11:54;;;;;;;2.43;1.60;;;;;;;5.74;81.09;95809.25;4893486;29;20226;-77
2024/02/06 06:14:20;;;;;;;2.27;1.57;;;;;;;5.94;80.04;95819.78;4888284;29;20207;-78
2024/02/06 06:16:45;;;;;;;4.00;1.93;;;;;;;5.89;79.92;95808.13;4889336;29;20190;-79
2024/02/06 06:19:10;;;;;;;5.33;2.00;;;;;;;5.86;80.29;95816.09;4887654;29;20270;-77
2024/02/06 06:21:36;;;;;;;1.77;1.67;;;;;;;5.92;80.11;95803.63;4893597;29;20242;-76
2024/02/06 06:24:01;;;;;;;9.90;6.07;;;;;;;5.79;80.39;95818.28;4896552;29;20190;-76
2024/02/06 06:26:26;;;;;;;6.50;2.80;;;;;;;6.01;79.82;95806.44;4894038;29;20191;-76
2024/02/06 06:28:52;;;;;;;6.90;5.00;;;;;;;6.11;79.08;95803.09;4893801;29;20179;-78
2024/02/06 06:31:17;;;;;;;3.40;2.10;;;;;;;5.99;80.14;95805.72;4908928;29;20183;-77
2024/02/06 06:33:43;;;;;;;2.43;1.70;;;;;;;5.96;79.99;95799.88;4905557;29;20196;-78
2024/02/06 06:36:09;;;;;;;1.40;1.30;;;;;;;5.97;79.93;95805.84;4905505;29;20770;-79
2024/02/06 06:38:34;;;;;;;1.63;1.30;;;;;;;5.97;80.00;95803.28;4892931;29;20194;-78
2024/02/06 06:41:00;;;;;;;7.27;6.63;;;;;;;6.12;79.42;95801.31;4891819;29;20270;-78
2024/02/06 06:43:26;;;;;;;2.07;1.77;;;;;;;6.08;79.51;95808.44;4892261;29;20250;-79
2024/02/06 06:45:51;;;;;;;2.70;1.90;;;;;;;6.13;79.05;95800.38;4903502;29;20188;-79
2024/02/06 06:48:17;;;;;;;1.43;1.33;;;;;;;6.05;79.73;95806.09;4902801;29;20194;-80
2024/02/06 06:50:42;;;;;;;2.13;1.37;;;;;;;6.08;79.76;95802.47;4893426;29;20672;-79
2024/02/06 06:53:09;;;;;;;2.23;1.60;;;;;;;5.90;80.23;95804.63;4896270;29;20207;-80
2024/02/06 06:55:34;;;;;;;2.97;1.97;;;;;;;6.00;79.97;95802.22;4906602;29;20183;-79
2024/02/06 06:58:00;;;;;;;1.97;1.00;;;;;;;6.08;79.56;95797.31;4876523;29;20183;-80
2024/02/06 07:00:25;;;;;;;1.40;1.07;;;;;;;6.17;79.18;95806.94;4886090;29;20202;-79
2024/02/06 07:02:51;;;;;;;2.53;1.13;;;;;;;6.09;78.94;95798.94;4908230;29;20220;-80
2024/02/06 07:05:20;;;;;;;2.03;1.27;;;;;;;6.23;78.63;95798.75;4897695;29;20199;-80
2024/02/06 07:07:46;;;;;;;2.03;1.47;;;;;;;6.16;78.48;95795.81;4905304;29;20271;-78
2024/02/06 07:10:11;;;;;;;7.77;3.90;;;;;;;6.33;78.05;95806.63;4899346;29;20215;-80
2024/02/06 07:12:36;;;;;;;5.93;5.43;;;;;;;6.33;78.22;95802.28;4889885;29;20588;-79
2024/02/06 07:15:03;;;;;;;2.03;0.90;;;;;;;6.29;77.76;95797.50;4904585;29;20274;-78
2024/02/06 07:17:29;;;;;;;1.00;0.90;;;;;;;6.50;77.26;95798.44;4892256;29;20563;-78
2024/02/06 07:19:55;;;;;;;1.10;1.00;;;;;;;6.11;78.13;95807.41;4900833;29;20668;-79
2024/02/06 07:22:20;;;;;;;1.70;0.90;;;;;;;6.21;77.93;95813.53;4907962;29;20279;-78
2024/02/06 07:24:46;;;;;;;1.47;1.37;;;;;;;6.24;77.69;95816.69;4899037;29;20194;-77
2024/02/06 07:27:11;;;;;;;2.87;1.20;;;;;;;6.43;77.09;95815.31;4877951;29;20251;-78
2024/02/06 07:29:37;;;;;;;2.07;1.20;;;;;;;6.28;77.02;95814.72;4908190;29;20179;-79
2024/02/06 07:32:03;;;;;;;4.70;4.30;;;;;;;6.10;77.03;95803.19;4891729;29;20204;-78
2024/02/06 07:34:28;;;;;;;1.40;1.30;;;;;;;6.03;77.76;95807.97;4886477;29;20191;-78
2024/02/06 07:36:53;;;;;;;3.20;2.90;;;;;;;6.30;76.62;95815.44;4906634;29;20238;-79
2024/02/06 07:39:19;;;;;;;3.77;2.07;;;;;;;6.20;77.00;95811.88;4892048;29;20228;-78
2024/02/06 07:41:44;;;;;;;1.50;1.20;;;;;;;6.38;76.42;95813.09;4891054;29;20215;-77
2024/02/06 07:44:10;;;;;;;3.60;2.30;;;;;;;6.46;76.23;95818.50;4872615;29;20213;-79
2024/02/06 07:46:38;;;;;;;1.60;1.03;;;;;;;6.44;75.99;95820.34;4889353;29;20277;-78
2024/02/06 07:49:04;;;;;;;1.97;1.77;;;;;;;6.43;76.31;95828.22;4905391;29;20680;-77
2024/02/06 07:51:29;;;;;;;1.10;0.80;;;;;;;6.18;77.08;95834.38;4878092;29;20195;-78
2024/02/06 07:53:56;;;;;;;3.07;2.00;;;;;;;6.63;75.42;95829.31;4905251;29;20211;-77
2024/02/06 07:56:21;;;;;;;1.50;1.00;;;;;;;6.52;76.06;95825.75;4894246;29;20191;-79
2024/02/06 07:58:47;;;;;;;1.77;0.90;;;;;;;6.50;75.69;95827.63;4915978;29;20188;-78
2024/02/06 08:01:12;;;;;;;1.67;0.90;;;;;;;6.25;76.50;95831.22;4889327;29;20203;-78
2024/02/06 08:03:38;;;;;;;1.43;0.87;;;;;;;6.50;75.92;95834.56;4881444;29;20195;-79
2024/02/06 08:06:04;;;;;;;1.83;0.70;;;;;;;6.58;75.49;95836.56;4908108;29;20198;-78
2024/02/06 08:08:29;;;;;;;1.87;0.83;;;;;;;6.32;76.33;95818.69;4905073;29;20202;-78
2024/02/06 08:10:55;;;;;;;2.00;0.80;;;;;;;6.26;75.72;95806.25;4889330;29;20195;-77
2024/02/06 08:13:21;;;;;;;1.53;0.90;;;;;;;6.15;75.88;95813.97;4912352;29;20286;-78
2024/02/06 08:15:46;;;;;;;0.90;0.70;;;;;;;6.45;75.52;95809.13;4896700;29;20584;-78
2024/02/06 08:18:12;;;;;;;1.87;0.87;;;;;;;6.76;74.08;95810.16;4894280;29;20187;-78
2024/02/06 08:20:37;;;;;;;1.70;0.90;;;;;;;6.60;74.52;95808.88;4899796;29;20196;-78
2024/02/06 08:23:02;;;;;;;2.40;0.90;;;;;;;6.96;73.21;95806.03;4872513;29;20219;-79
2024/02/06 08:25:28;;;;;;;3.13;1.00;;;;;;;6.75;73.76;95798.22;4892927;29;20187;-80
2024/02/06 08:27:54;;;;;;;2.53;1.30;;;;;;;6.95;73.00;95801.81;4893461;29;20183;-78
2024/02/06 08:30:19;;;;;;;2.57;0.83;;;;;;;6.98;72.80;95796.44;4891095;29;20199;-78
2024/02/06 08:32:44;;;;;;;4.23;1.27;;;;;;;6.89;72.16;95799.75;4907398;29;20203;-79
2024/02/06 08:35:10;;;;;;;3.13;1.30;;;;;;;7.27;70.93;95794.16;4901981;29;20188;-79
2024/02/06 08:37:35;;;;;;;3.43;1.13;;;;;;;6.88;72.22;95805.81;4910095;29;20187;-79
2024/02/06 08:40:01;;;;;;;5.50;1.13;;;;;;;7.21;71.22;95809.31;4889666;29;20244;-78
2024/02/06 08:42:26;;;;;;;2.93;1.20;;;;;;;7.50;70.42;95794.06;4905860;29;20250;-80
2024/02/06 08:44:52;;;;;;;2.30;1.30;;;;;;;7.42;70.20;95804.19;4890171;29;21489;-79
2024/02/06 08:47:17;;;;;;;7.37;1.40;;;;;;;7.30;70.41;95799.06;4877432;29;20677;-78
2024/02/06 08:49:43;;;;;;;5.33;1.57;;;;;;;7.59;69.25;95791.56;4891681;29;20221;-78
2024/02/06 08:52:08;;;;;;;4.83;1.53;;;;;;;7.76;68.66;95800.53;4886618;29;20204;-79
2024/02/06 08:54:33;;;;;;;4.03;1.47;;;;;;;7.90;68.56;95791.69;4895912;29;20191;-78
2024/02/06 08:56:59;;;;;;;4.43;1.50;;;;;;;7.80;68.68;95796.78;4888560;29;20188;-78
2024/02/06 08:59:24;;;;;;;5.90;1.37;;;;;;;7.88;68.34;95794.41;4884219;29;20281;-79
2024/02/06 09:01:49;;;;;;;2.70;1.20;;;;;;;8.00;67.75;95796.91;4889702;29;20254;-79
2024/02/06 09:04:15;;;;;;;5.27;2.63;;;;;;;8.05;68.02;95793.03;4904261;29;20243;-79
2024/02/06 09:06:40;;;;;;;3.33;1.77;;;;;;;8.05;67.52;95790.44;4890963;29;20215;-79
2024/02/06 09:09:06;;;;;;;6.57;1.80;;;;;;;8.16;67.38;95777.44;4905921;29;20195;-80
2024/02/06 09:11:32;;;;;;;4.17;1.50;;;;;;;8.11;67.12;95786.50;4896531;29;20194;-79
2024/02/06 09:13:58;;;;;;;6.63;1.57;;;;;;;8.20;67.15;95794.31;4905510;29;20184;-78
2024/02/06 09:16:23;;;;;;;4.90;1.50;;;;;;;8.11;67.16;95799.44;4906299;29;20741;-79
2024/02/06 09:18:49;;;;;;;7.57;1.37;;;;;;;8.06;67.15;95786.91;4887328;29;20184;-78
2024/02/06 09:21:16;;;;;;;4.10;1.30;;;;;;;8.04;67.79;95786.22;4904076;29;20239;-79
2024/02/06 09:23:41;;;;;;;10.07;4.57;;;;;;;8.44;66.14;95777.75;4894419;29;20183;-79
2024/02/06 09:26:09;;;;;;;4.27;1.63;;;;;;;8.29;66.38;95763.47;4890192;29;20246;-79
2024/02/06 09:28:34;;;;;;;3.10;1.30;;;;;;;8.35;66.64;95768.16;4891916;29;20218;-78
2024/02/06 09:31:00;;;;;;;4.40;1.57;;;;;;;8.26;67.11;95767.13;4889608;29;20176;-79
2024/02/06 09:33:26;;;;;;;4.30;1.40;;;;;;;8.52;65.86;95759.81;4890105;29;20284;-79
2024/02/06 09:35:51;;;;;;;5.43;1.60;;;;;;;8.47;66.73;95762.75;4900546;29;20190;-78
2024/02/06 09:38:17;;;;;;;4.73;1.40;;;;;;;8.82;65.15;95776.25;4906208;29;20196;-79
2024/02/06 09:40:43;;;;;;;2.97;1.13;;;;;;;8.89;65.14;95764.44;4905236;29;20194;-79
2024/02/06 09:43:08;;;;;;;4.90;1.50;;;;;;;8.85;65.24;95768.25;4902843;29;20207;-78
2024/02/06 09:45:35;;;;;;;7.87;1.70;;;;;;;9.01;64.53;95778.91;4901223;29;20266;-79
2024/02/06 09:48:00;;;;;;;3.93;1.20;;;;;;;9.08;64.81;95767.06;4900958;29;20187;-78
2024/02/06 09:50:25;;;;;;;5.07;1.27;;;;;;;9.30;64.29;95772.03;4889021;29;20231;-79
2024/02/06 09:52:51;;;;;;;3.20;1.20;;;;;;;9.45;63.63;95775.03;4890488;29;20207;-79
2024/02/06 09:55:18;;;;;;;5.50;1.43;;;;;;;9.42;64.15;95774.50;4891272;29;20191;-78
2024/02/06 09:57:43;;;;;;;5.17;1.73;;;;;;;9.27;63.90;95761.09;4879302;29;20660;-78
2024/02/06 10:00:09;;;;;;;3.87;1.10;;;;;;;8.94;64.87;95768.28;4903434;29;20187;-79
2024/02/06 10:02:37;;;;;;;4.83;1.27;;;;;;;9.18;64.75;95773.09;4897487;29;20224;-77
2024/02/06 10:05:03;;;;;;;5.97;1.30;;;;;;;9.12;64.21;95772.81;4893662;29;20183;-78
2024/02/06 10:07:29;;;;;;;2.53;1.00;;;;;;;9.11;64.33;95789.31;4895898;29;20235;-79
2024/02/06 10:09:54;;;;;;;5.37;2.00;;;;;;;9.47;63.45;95786.09;4893220;29;20200;-78
2024/02/06 10:12:20;;;;;;;3.70;1.20;;;;;;;9.63;62.85;95786.41;4895008;29;20223;-79
2024/02/06 10:14:45;;;;;;;8.47;1.50;;;;;;;9.16;64.36;95784.53;4909151;29;20270;-79
2024/02/06 10:17:13;;;;;;;6.07;1.90;;;;;;;9.60;63.00;95791.00;4895399;29;20210;-78
2024/02/06 10:19:38;;;;;;;3.80;1.10;;;;;;;9.59;62.77;95787.59;4897082;29;20271;-79
2024/02/06 10:22:03;;;;;;;4.77;1.33;;;;;;;9.17;64.06;95779.22;4890114;29;20310;-79
2024/02/06 10:24:29;;;;;;;4.33;1.20;;;;;;;9.51;63.38;95781.47;4891918;29;20195;-79
2024/02/06 10:27:03;;;;;;;6.20;1.50;;;;;;;9.60;63.32;95786.66;4896912;29;20657;-79
2024/02/06 10:29:29;;;;;;;9.37;1.70;;;;;;;9.80;62.51;95786.66;4909099;29;20202;-78
2024/02/06 10:31:58;;;;;;;8.77;2.30;;;;;;;9.53;62.31;95775.19;4892808;29;20206;-79
2024/02/06 10:34:26;;;;;;;9.33;1.97;;;;;;;9.49;63.24;95783.38;4893716;29;20236;-79
2024/02/06 10:36:57;;;;;;;7.10;1.40;;;;;;;9.45;63.24;95774.22;4896415;29;20187;-79
2024/02/06 10:39:22;;;;;;;6.80;1.70;;;;;;;9.30;63.17;95764.25;4895971;29;20202;-78
2024/02/06 10:41:57;;;;;;;7.43;1.40;;;;;;;9.63;62.75;95773.44;4892956;29;20224;-79
2024/02/06 10:44:23;;;;;;;8.03;1.90;;;;;;;9.35;63.42;95758.66;4893597;29;20210;-79
2024/02/06 10:46:57;;;;;;;6.47;2.33;;;;;;;9.80;62.26;95766.72;4899769;29;20180;-79
2024/02/06 10:49:22;;;;;;;6.33;1.70;;;;;;;9.69;62.10;95764.28;4892075;29;20191;-79
2024/02/06 10:51:49;;;;;;;12.63;6.50;;;;;;;9.75;62.46;95758.53;4892878;29;20195;-78
2024/02/06 10:54:19;;;;;;;7.90;1.63;;;;;;;9.71;61.91;95764.13;4892922;29;20242;-78
2024/02/06 10:56:50;;;;;;;6.80;1.70;;;;;;;10.01;61.37;95753.59;4908579;29;20183;-78
2024/02/06 10:59:18;;;;;;;4.13;1.43;;;;;;;9.82;61.90;95749.25;4898877;29;20198;-78
2024/02/06 11:01:44;;;;;;;5.40;2.20;;;;;;;10.00;60.92;95756.34;4892904;29;20220;-80
2024/02/06 11:04:11;;;;;;;8.63;1.97;;;;;;;9.87;61.51;95752.25;4892158;29;20200;-79
2024/02/06 11:06:46;;;;;;;5.47;2.03;;;;;;;9.84;62.08;95751.72;4892031;29;20187;-79
2024/02/06 11:09:14;;;;;;;5.57;2.10;;;;;;;10.09;61.21;95760.69;4896260;29;20221;-77
2024/02/06 11:11:39;;;;;;;6.60;1.50;;;;;;;9.80;61.65;95750.34;4884118;29;20202;-79
2024/02/06 11:14:05;;;;;;;7.87;1.63;;;;;;;9.99;61.20;95754.72;4893333;29;20183;-79
2024/02/06 11:16:34;;;;;;;7.30;1.80;;;;;;;9.78;62.16;95742.69;4907889;29;20198;-79
2024/02/06 11:19:05;;;;;;;8.13;2.13;;;;;;;10.00;61.40;95743.38;4875383;29;20597;-79
2024/02/06 11:21:32;;;;;;;5.87;2.10;;;;;;;9.89;61.64;95752.09;4897790;29;20674;-77
2024/02/06 11:23:58;;;;;;;12.23;2.13;;;;;;;9.83;61.36;95743.13;4877620;29;20199;-78
2024/02/06 11:26:24;;;;;;;8.97;1.90;;;;;;;9.98;61.19;95737.47;4892390;29;20187;-77
2024/02/06 11:28:50;;;;;;;5.93;1.87;;;;;;;10.32;59.83;95749.06;4891323;29;20669;-78